Time;durP1;ratioP1;P1;durP2;ratioP2;P2;SDS_P1;SDS_P2;PMS_P1;PMS_P2;Temp;Humidity;BMP_temperature;BMP_pressure;BME280_temperature;BME280_humidity;BME280_pressure;Samples;Min_cycle;Max_cycle;Signal;HPM_P1;HPM_P2
2023/07/04 14:18:07;;;;;;;503.27;353.58;;;;;;;;;;5058740;27;1320930;-60
2023/07/04 14:20:33;;;;;;;342.63;272.10;;;;;;;;;;5094149;28;20145;-58
2023/07/04 14:22:58;;;;;;;549.47;491.10;;;;;;;;;;5069263;28;20032;-57
2023/07/04 14:25:23;;;;;;;371.87;265.90;;;;;;;;;;5069663;28;20067;-60
2023/07/04 14:27:48;;;;;;;550.35;495.63;;;;;;;;;;5070678;28;20028;-59
2023/07/04 14:30:14;;;;;;;466.47;383.80;;;;;;;;;;5069201;28;20543;-57
2023/07/04 14:32:39;;;;;;;484.20;360.07;;;;;;;;;;5067964;28;20256;-55
2023/07/04 14:35:05;;;;;;;556.35;496.38;;;;;;;;;;5067255;28;20078;-54
2023/07/04 14:37:31;;;;;;;714.42;648.20;;;;;;;;;;5069151;28;20389;-53
2023/07/04 14:39:56;;;;;;;607.50;540.13;;;;;;;;;;5068694;28;20016;-57
2023/07/04 14:42:22;;;;;;;675.15;601.33;;;;;;;;;;5068988;28;20032;-57
2023/07/04 14:44:47;;;;;;;533.40;478.15;;;;;;;;;;5069440;28;20040;-55
2023/07/04 14:47:13;;;;;;;480.50;428.47;;;;;;;;;;5067301;28;20635;-57
2023/07/04 14:49:39;;;;;;;421.05;319.45;;;;;;;;;;5069882;28;20865;-53
2023/07/04 14:52:04;;;;;;;600.23;535.83;;;;;;;;;;5067590;28;20036;-56
2023/07/04 14:54:29;;;;;;;587.92;529.10;;;;;;;;;;5070460;28;20325;-55
2023/07/04 14:56:56;;;;;;;680.00;603.50;;;;;;;;;;5066664;28;20463;-56
2023/07/04 14:59:21;;;;;;;540.70;471.60;;;;;;;;;;5068179;28;20035;-57
2023/07/04 15:01:46;;;;;;;566.08;512.20;;;;;;;;;;5068711;28;20161;-58
2023/07/04 15:04:12;;;;;;;467.83;426.83;;;;;;;;;;5070144;28;20013;-57
2023/07/04 15:06:37;;;;;;;516.08;467.40;;;;;;;;;;5069405;28;20353;-58
2023/07/04 15:09:02;;;;;;;460.17;414.40;;;;;;;;;;5069123;28;20796;-58
2023/07/04 15:11:28;;;;;;;514.55;366.65;;;;;;;;;;5059540;28;20043;-57
2023/07/04 15:13:53;;;;;;;539.00;484.80;;;;;;;;;;5048650;28;20564;-56
2023/07/04 15:16:18;;;;;;;650.47;592.73;;;;;;;;;;5048827;28;20037;-56
2023/07/04 15:18:43;;;;;;;612.15;549.67;;;;;;;;;;5049060;28;20271;-57
2023/07/04 15:21:09;;;;;;;479.43;431.43;;;;;;;;;;5047155;28;20268;-54
2023/07/04 15:23:34;;;;;;;447.90;407.90;;;;;;;;;;5048918;28;20062;-57
2023/07/04 15:26:00;;;;;;;603.90;542.63;;;;;;;;;;5046786;28;20033;-55
2023/07/04 15:28:25;;;;;;;416.52;376.05;;;;;;;;;;5041816;28;20498;-57
2023/07/04 15:30:51;;;;;;;626.92;568.97;;;;;;;;;;5035837;28;20057;-58
2023/07/04 15:33:16;;;;;;;580.47;526.58;;;;;;;;;;5033459;28;20499;-57
2023/07/04 15:35:41;;;;;;;527.55;478.55;;;;;;;;;;5033608;28;20025;-54
2023/07/04 15:38:07;;;;;;;445.60;400.10;;;;;;;;;;5033179;28;20044;-54
2023/07/04 15:40:32;;;;;;;449.20;402.67;;;;;;;;;;5035566;28;20312;-55
2023/07/04 15:42:57;;;;;;;545.53;489.58;;;;;;;;;;5033439;28;20264;-55
2023/07/04 15:45:23;;;;;;;510.88;465.10;;;;;;;;;;5035686;28;20021;-57
2023/07/04 15:47:48;;;;;;;566.50;498.60;;;;;;;;;;5034344;28;20087;-56
2023/07/04 15:50:14;;;;;;;426.13;386.20;;;;;;;;;;5033887;28;20475;-58
2023/07/04 15:52:39;;;;;;;516.25;467.40;;;;;;;;;;5036743;28;20032;-57
2023/07/04 15:55:05;;;;;;;430.55;386.58;;;;;;;;;;5034494;28;20707;-56
2023/07/04 15:57:30;;;;;;;486.27;440.15;;;;;;;;;;5035563;28;20028;-57
2023/07/04 15:59:55;;;;;;;412.23;372.57;;;;;;;;;;5035205;28;20023;-59
2023/07/04 16:02:20;;;;;;;660.63;497.67;;;;;;;;;;5036155;28;20374;-55
2023/07/04 16:04:46;;;;;;;468.33;421.13;;;;;;;;;;5035066;28;20400;-57
2023/07/04 16:07:11;;;;;;;444.50;397.33;;;;;;;;;;5033369;28;20223;-57
2023/07/04 16:09:37;;;;;;;461.83;419.30;;;;;;;;;;5034729;28;20033;-57
2023/07/04 16:12:02;;;;;;;607.00;483.67;;;;;;;;;;5033811;28;20033;-57
2023/07/04 16:14:28;;;;;;;430.80;390.73;;;;;;;;;;5035091;28;20183;-55
2023/07/04 16:16:53;;;;;;;424.45;385.38;;;;;;;;;;5032606;28;20045;-57
2023/07/04 16:19:19;;;;;;;450.63;406.90;;;;;;;;;;5034224;28;20025;-58
2023/07/04 16:21:44;;;;;;;494.57;449.53;;;;;;;;;;5035151;28;20318;-59
2023/07/04 16:24:09;;;;;;;456.63;410.43;;;;;;;;;;5033808;28;20278;-55
2023/07/04 16:26:34;;;;;;;517.08;467.25;;;;;;;;;;5034655;28;20040;-56
2023/07/04 16:29:00;;;;;;;498.48;449.77;;;;;;;;;;5034510;28;20021;-57
2023/07/04 16:31:25;;;;;;;454.87;411.80;;;;;;;;;;5035791;28;20116;-58
2023/07/04 16:33:50;;;;;;;667.67;438.00;;;;;;;;;;5034568;28;20508;-54
2023/07/04 16:36:16;;;;;;;437.70;395.73;;;;;;;;;;5032017;28;22445;-55
2023/07/04 16:38:41;;;;;;;440.63;400.10;;;;;;;;;;5033765;28;20021;-56
2023/07/04 16:41:08;;;;;;;466.85;416.83;;;;;;;;;;5032734;28;20037;-58
2023/07/04 16:43:33;;;;;;;119.35;26.30;;;;;;;;;;5034761;28;20013;-59
2023/07/04 16:45:59;;;;;;;758.07;510.93;;;;;;;;;;5032598;28;20029;-55
2023/07/04 16:48:24;;;;;;;464.83;416.37;;;;;;;;;;5034756;28;20025;-57
2023/07/04 16:50:49;;;;;;;641.87;575.53;;;;;;;;;;5034517;28;20267;-56
2023/07/04 16:53:14;;;;;;;507.33;442.42;;;;;;;;;;5033570;28;20267;-56
2023/07/04 16:55:40;;;;;;;516.75;466.40;;;;;;;;;;5032975;28;20395;-57
2023/07/04 16:58:06;;;;;;;440.27;394.42;;;;;;;;;;5032647;28;20029;-57
2023/07/04 17:00:31;;;;;;;404.20;366.08;;;;;;;;;;5034078;28;20029;-57
2023/07/04 17:02:57;;;;;;;517.22;466.17;;;;;;;;;;5034273;28;20140;-57
2023/07/04 17:05:22;;;;;;;419.98;379.17;;;;;;;;;;5032259;28;20095;-59
2023/07/04 17:07:47;;;;;;;395.77;357.25;;;;;;;;;;5034099;28;20505;-58
2023/07/04 17:10:13;;;;;;;434.90;387.90;;;;;;;;;;5032892;28;20021;-60
2023/07/04 17:12:38;;;;;;;446.38;403.58;;;;;;;;;;5034005;28;20271;-60
2023/07/04 17:15:04;;;;;;;406.92;359.60;;;;;;;;;;5034322;28;20091;-60
2023/07/04 17:17:29;;;;;;;620.97;411.15;;;;;;;;;;5034022;28;20048;-60
2023/07/04 17:19:54;;;;;;;420.77;381.73;;;;;;;;;;5033880;28;20025;-60
2023/07/04 17:22:19;;;;;;;683.27;445.30;;;;;;;;;;5033152;28;20522;-59
2023/07/04 17:24:45;;;;;;;424.23;379.60;;;;;;;;;;5033135;28;20367;-59
2023/07/04 17:27:10;;;;;;;624.75;560.78;;;;;;;;;;5031930;28;20299;-59
2023/07/04 17:29:35;;;;;;;410.47;371.37;;;;;;;;;;5034019;28;20251;-59
2023/07/04 17:32:00;;;;;;;412.60;372.27;;;;;;;;;;5032208;28;20040;-56
2023/07/04 17:34:27;;;;;;;392.15;352.55;;;;;;;;;;5033669;28;20794;-55
2023/07/04 17:36:53;;;;;;;370.17;331.77;;;;;;;;;;5033064;28;20428;-56
2023/07/04 17:39:18;;;;;;;499.23;445.97;;;;;;;;;;5032368;28;20017;-55
2023/07/04 17:41:43;;;;;;;601.95;543.78;;;;;;;;;;5033466;28;20307;-56
2023/07/04 17:44:08;;;;;;;501.80;446.67;;;;;;;;;;5032710;28;20021;-56
2023/07/04 17:46:34;;;;;;;432.30;386.00;;;;;;;;;;5032289;28;20371;-56
2023/07/04 17:48:59;;;;;;;480.33;432.77;;;;;;;;;;5033045;28;20025;-54
2023/07/04 17:51:25;;;;;;;438.33;396.50;;;;;;;;;;5032641;28;20040;-56
2023/07/04 17:53:50;;;;;;;489.15;442.08;;;;;;;;;;5033115;28;20025;-55
2023/07/04 17:56:17;;;;;;;505.05;450.95;;;;;;;;;;5031140;28;20033;-57
2023/07/04 17:58:43;;;;;;;542.47;491.38;;;;;;;;;;5033868;28;20024;-55
2023/07/04 18:01:11;;;;;;;409.27;360.20;;;;;;;;;;5031384;28;20525;-54
2023/07/04 18:03:37;;;;;;;457.00;405.17;;;;;;;;;;5033561;28;20017;-56
2023/07/04 18:06:03;;;;;;;402.38;360.33;;;;;;;;;;5030245;28;20095;-57
2023/07/04 18:08:29;;;;;;;507.05;456.52;;;;;;;;;;5033327;28;20024;-57
2023/07/04 18:10:55;;;;;;;380.70;344.27;;;;;;;;;;5033547;28;20025;-58
2023/07/04 18:13:20;;;;;;;386.33;345.25;;;;;;;;;;5033921;28;20106;-58
2023/07/04 18:15:53;;;;;;;704.22;637.20;;;;;;;;;;5032357;28;20032;-56
2023/07/04 18:18:19;;;;;;;427.25;382.92;;;;;;;;;;5032257;28;20128;-57
2023/07/04 18:20:44;;;;;;;518.55;468.63;;;;;;;;;;5034258;28;20128;-56
2023/07/04 18:23:10;;;;;;;467.15;417.92;;;;;;;;;;5033256;28;20070;-58
2023/07/04 18:25:36;;;;;;;452.48;407.58;;;;;;;;;;5037228;28;20035;-57
2023/07/04 18:28:01;;;;;;;449.60;407.27;;;;;;;;;;5053745;28;20043;-57
2023/07/04 18:30:26;;;;;;;479.47;432.33;;;;;;;;;;5051207;28;20024;-56
2023/07/04 18:32:52;;;;;;;536.07;486.53;;;;;;;;;;5053201;28;20024;-57
2023/07/04 18:35:17;;;;;;;459.27;397.13;;;;;;;;;;5051678;28;20009;-56
2023/07/04 18:37:42;;;;;;;511.77;462.37;;;;;;;;;;5052581;28;20366;-56
2023/07/04 18:40:08;;;;;;;665.05;596.78;;;;;;;;;;5052054;28;20306;-57
2023/07/04 18:42:34;;;;;;;484.17;438.55;;;;;;;;;;5052791;28;20019;-57
2023/07/04 18:44:59;;;;;;;560.90;508.00;;;;;;;;;;5053142;28;20016;-56
2023/07/04 18:47:24;;;;;;;527.73;475.73;;;;;;;;;;5050134;28;20155;-55
2023/07/04 18:49:50;;;;;;;499.63;451.67;;;;;;;;;;5053626;28;20021;-58
2023/07/04 18:52:15;;;;;;;593.13;530.70;;;;;;;;;;5051277;28;20044;-55
2023/07/04 18:54:40;;;;;;;475.23;428.50;;;;;;;;;;5052727;28;20016;-57
2023/07/04 18:57:05;;;;;;;577.80;523.20;;;;;;;;;;5051365;28;20037;-56
2023/07/04 18:59:31;;;;;;;502.52;453.70;;;;;;;;;;5052550;28;20607;-57
2023/07/04 19:01:56;;;;;;;476.52;429.85;;;;;;;;;;5052065;28;20114;-58
2023/07/04 19:04:21;;;;;;;552.70;495.73;;;;;;;;;;5053674;28;20128;-58
2023/07/04 19:06:47;;;;;;;520.22;468.08;;;;;;;;;;5055493;28;20529;-56
2023/07/04 19:09:12;;;;;;;603.40;538.78;;;;;;;;;;5055358;28;20547;-58
2023/07/04 19:11:39;;;;;;;560.55;506.60;;;;;;;;;;5056334;28;20141;-57
2023/07/04 19:14:08;;;;;;;660.03;600.67;;;;;;;;;;5055753;28;20017;-56
2023/07/04 19:16:35;;;;;;;594.85;538.78;;;;;;;;;;5054524;28;20099;-54
2023/07/04 19:19:00;;;;;;;669.13;603.35;;;;;;;;;;5055664;28;20031;-55
2023/07/04 19:21:25;;;;;;;677.08;612.22;;;;;;;;;;5043541;28;20434;-54
2023/07/04 19:23:51;;;;;;;738.87;671.10;;;;;;;;;;5036005;28;20033;-56
2023/07/04 19:26:16;;;;;;;211.60;69.85;;;;;;;;;;5033555;28;20645;-58
2023/07/04 19:28:41;;;;;;;573.97;517.23;;;;;;;;;;5035797;28;20021;-56
2023/07/04 19:31:07;;;;;;;583.65;525.47;;;;;;;;;;5036085;28;20040;-56
2023/07/04 19:33:33;;;;;;;206.05;119.63;;;;;;;;;;5033858;28;20562;-56
2023/07/04 19:35:59;;;;;;;389.52;347.05;;;;;;;;;;5035071;28;20033;-57
2023/07/04 19:38:24;;;;;;;211.35;113.03;;;;;;;;;;5035598;28;20513;-59
2023/07/04 19:40:56;;;;;;;327.25;251.40;;;;;;;;;;5036612;28;20040;-57
2023/07/04 19:43:22;;;;;;;129.93;12.02;;;;;;;;;;5034347;28;20020;-56
2023/07/04 19:45:55;;;;;;;170.85;72.90;;;;;;;;;;5034685;28;20048;-58
2023/07/04 19:48:20;;;;;;;208.25;90.15;;;;;;;;;;5032930;28;20650;-57
2023/07/04 19:50:45;;;;;;;252.77;161.83;;;;;;;;;;5035511;28;20502;-59
2023/07/04 19:53:10;;;;;;;227.60;133.50;;;;;;;;;;5033947;28;20619;-55
2023/07/04 19:55:36;;;;;;;132.20;45.27;;;;;;;;;;5033800;28;20514;-56
2023/07/04 19:58:02;;;;;;;87.68;15.60;;;;;;;;;;5035084;28;20107;-58
2023/07/04 20:00:27;;;;;;;146.30;16.97;;;;;;;;;;5033754;28;20216;-58
2023/07/04 20:02:54;;;;;;;97.63;9.48;;;;;;;;;;5034578;28;20896;-57
2023/07/04 20:05:19;;;;;;;133.27;11.63;;;;;;;;;;5032181;28;20028;-58
2023/07/04 20:07:45;;;;;;;103.43;9.77;;;;;;;;;;5033946;28;20013;-55
2023/07/04 20:10:10;;;;;;;98.97;9.85;;;;;;;;;;5033607;28;20255;-58
2023/07/04 20:12:36;;;;;;;132.40;47.58;;;;;;;;;;5035154;28;20035;-57
2023/07/04 20:15:01;;;;;;;87.43;14.00;;;;;;;;;;5033801;28;20029;-56
2023/07/04 20:17:28;;;;;;;152.88;13.15;;;;;;;;;;5031283;28;20296;-57
2023/07/04 20:19:53;;;;;;;75.63;13.85;;;;;;;;;;5035224;28;20193;-56
2023/07/04 20:22:18;;;;;;;143.40;13.53;;;;;;;;;;5032840;28;20436;-58
2023/07/04 20:24:44;;;;;;;111.57;10.60;;;;;;;;;;5034136;28;20255;-55
2023/07/04 20:27:09;;;;;;;80.67;8.50;;;;;;;;;;5033811;28;20669;-55
2023/07/04 20:29:34;;;;;;;100.90;9.90;;;;;;;;;;5033226;28;20021;-59
2023/07/04 20:31:59;;;;;;;73.60;8.23;;;;;;;;;;5034365;28;20255;-58
2023/07/04 20:34:25;;;;;;;146.32;13.43;;;;;;;;;;5032769;28;20040;-57
2023/07/04 20:36:50;;;;;;;83.55;8.93;;;;;;;;;;5033194;28;20073;-59
2023/07/04 20:39:15;;;;;;;129.88;12.35;;;;;;;;;;5031668;28;20035;-57
2023/07/04 20:41:40;;;;;;;109.67;13.57;;;;;;;;;;5034412;28;20024;-58
2023/07/04 20:44:06;;;;;;;117.93;11.03;;;;;;;;;;5035154;28;20040;-58
2023/07/04 20:46:31;;;;;;;75.50;8.70;;;;;;;;;;5033022;28;22000;-55
2023/07/04 20:48:56;;;;;;;90.97;9.20;;;;;;;;;;5033193;28;20017;-56
2023/07/04 20:51:23;;;;;;;154.10;13.67;;;;;;;;;;5032496;28;20677;-57
2023/07/04 20:53:48;;;;;;;96.88;9.55;;;;;;;;;;5034962;28;20263;-58
2023/07/04 20:56:14;;;;;;;93.38;9.45;;;;;;;;;;5032715;28;20039;-58
2023/07/04 20:58:39;;;;;;;107.28;10.10;;;;;;;;;;5034575;28;20019;-57
2023/07/04 21:01:05;;;;;;;84.47;8.95;;;;;;;;;;5034458;28;20110;-56
2023/07/04 21:03:30;;;;;;;132.43;12.52;;;;;;;;;;5033391;28;20021;-60
2023/07/04 21:05:55;;;;;;;123.47;11.15;;;;;;;;;;5031630;28;20033;-59
2023/07/04 21:08:25;;;;;;;149.82;13.48;;;;;;;;;;5032844;28;20036;-59
2023/07/04 21:11:03;;;;;;;72.68;7.95;;;;;;;;;;5035185;28;20083;-57
2023/07/04 21:13:29;;;;;;;127.53;12.02;;;;;;;;;;5033585;28;20029;-59
2023/07/04 21:15:59;;;;;;;90.03;10.10;;;;;;;;;;5028170;28;20095;-58
2023/07/04 21:18:24;;;;;;;161.63;14.80;;;;;;;;;;5026683;28;20031;-57
2023/07/04 21:20:49;;;;;;;97.43;9.80;;;;;;;;;;5034160;28;20029;-60
2023/07/04 21:23:15;;;;;;;97.17;9.90;;;;;;;;;;5033052;28;20298;-58
2023/07/04 21:25:41;;;;;;;113.45;10.50;;;;;;;;;;5032801;28;20321;-59
2023/07/04 21:28:06;;;;;;;84.53;8.82;;;;;;;;;;5034412;28;20048;-59
2023/07/04 21:30:31;;;;;;;113.90;10.63;;;;;;;;;;5032898;28;20436;-59
2023/07/04 21:32:57;;;;;;;112.72;10.43;;;;;;;;;;5034977;28;20301;-56
2023/07/04 21:35:22;;;;;;;128.03;12.20;;;;;;;;;;5033319;28;20409;-56
2023/07/04 21:37:49;;;;;;;100.18;9.98;;;;;;;;;;5033908;28;20307;-58
2023/07/04 21:40:14;;;;;;;115.18;10.80;;;;;;;;;;5033779;28;20070;-56
2023/07/04 21:42:40;;;;;;;101.45;9.88;;;;;;;;;;5032167;28;20497;-59
2023/07/04 21:45:06;;;;;;;75.25;8.40;;;;;;;;;;5033409;28;20048;-59
2023/07/04 21:47:31;;;;;;;151.95;12.98;;;;;;;;;;5030559;28;20040;-56
2023/07/04 21:49:57;;;;;;;89.10;9.40;;;;;;;;;;5033744;28;20638;-55
2023/07/04 21:52:22;;;;;;;139.05;12.57;;;;;;;;;;5031533;28;20040;-55
2023/07/04 21:54:47;;;;;;;128.70;11.43;;;;;;;;;;5033374;28;20037;-54
2023/07/04 21:57:12;;;;;;;95.47;9.65;;;;;;;;;;5033732;28;20742;-55
2023/07/04 21:59:38;;;;;;;105.77;10.17;;;;;;;;;;5031290;28;20017;-54
2023/07/04 22:02:03;;;;;;;99.03;10.23;;;;;;;;;;5032467;28;20263;-53
2023/07/04 22:04:29;;;;;;;234.30;75.53;;;;;;;;;;5031738;28;20021;-54
2023/07/04 22:06:54;;;;;;;92.53;9.30;;;;;;;;;;5030983;28;20044;-54
2023/07/04 22:09:19;;;;;;;154.45;24.05;;;;;;;;;;5030996;28;20317;-57
2023/07/04 22:11:45;;;;;;;101.15;10.00;;;;;;;;;;5033270;28;20037;-55
2023/07/04 22:14:10;;;;;;;80.20;9.15;;;;;;;;;;5033442;28;20120;-55
2023/07/04 22:16:35;;;;;;;160.50;14.73;;;;;;;;;;5029250;28;20087;-55
2023/07/04 22:19:00;;;;;;;88.30;8.97;;;;;;;;;;5032201;28;20035;-56
2023/07/04 22:21:26;;;;;;;135.20;11.83;;;;;;;;;;5030618;28;20707;-55
2023/07/04 22:23:51;;;;;;;95.07;9.25;;;;;;;;;;5031561;28;20457;-56
2023/07/04 22:26:17;;;;;;;102.00;10.05;;;;;;;;;;5032294;28;20029;-57
2023/07/04 22:28:43;;;;;;;274.75;173.60;;;;;;;;;;5030146;28;20013;-57
2023/07/04 22:31:09;;;;;;;137.70;17.55;;;;;;;;;;5031709;28;20044;-56
2023/07/04 22:33:38;;;;;;;161.98;14.10;;;;;;;;;;5029091;28;20032;-54
2023/07/04 22:36:03;;;;;;;125.25;11.40;;;;;;;;;;5029540;28;20037;-54
2023/07/04 22:38:29;;;;;;;164.80;17.90;;;;;;;;;;5028139;28;20027;-55
2023/07/04 22:40:54;;;;;;;210.33;96.00;;;;;;;;;;5032278;28;20033;-56
2023/07/04 22:43:19;;;;;;;113.47;10.83;;;;;;;;;;5032299;28;20810;-54
2023/07/04 22:45:46;;;;;;;127.95;11.10;;;;;;;;;;5031145;28;20338;-55
2023/07/04 22:48:11;;;;;;;120.35;11.07;;;;;;;;;;5032291;28;20556;-56
2023/07/04 22:50:37;;;;;;;161.80;14.32;;;;;;;;;;5030281;28;20045;-57
2023/07/04 22:53:02;;;;;;;103.07;11.95;;;;;;;;;;5033344;28;20025;-56
2023/07/04 22:55:27;;;;;;;156.80;13.87;;;;;;;;;;5030863;28;20036;-53
2023/07/04 22:57:53;;;;;;;97.65;9.68;;;;;;;;;;5030337;28;20678;-54
